Time,TemperatureF,DewpointF,PressureIn,WindDirection,WindDirectionDegrees,WindSpeedMPH,WindSpeedGustMPH,Humidity,HourlyPrecipIn,Conditions,Clouds,dailyrainin,SoftwareType,DateUTC
2013-06-04 00:07:00,56.3,48.8,30.10,NW,326,1.0,1.0,76,0.00,,,0.00,Wunderground v.1.15,2013-06-04 04:07:00,
2013-06-04 00:17:00,56.2,49.1,30.10,South,172,1.0,1.0,77,0.00,,,0.00,Wunderground v.1.15,2013-06-04 04:17:00,
2013-06-04 00:27:00,56.0,48.9,30.10,South,172,0.0,13.0,77,0.00,,,0.00,Wunderground v.1.15,2013-06-04 04:27:00,
2013-06-04 00:32:00,55.9,49.1,30.10,South,172,0.0,13.0,78,0.00,,,0.00,Wunderground v.1.15,2013-06-04 04:32:00,
2013-06-04 00:42:00,56.0,49.2,30.10,South,172,0.0,13.0,78,0.00,,,0.00,Wunderground v.1.15,2013-06-04 04:42:00,
2013-06-04 01:12:00,55.9,48.4,30.10,South,172,0.0,7.0,76,0.00,,,0.00,Wunderground v.1.15,2013-06-04 05:12:00,
2013-06-04 01:22:00,56.0,48.5,30.10,South,172,0.0,7.0,76,0.00,,,0.00,Wunderground v.1.15,2013-06-04 05:22:00,
2013-06-04 01:37:00,55.9,48.8,30.10,South,172,0.0,7.0,77,0.00,,,0.00,Wunderground v.1.15,2013-06-04 05:37:00,
2013-06-04 01:47:00,55.3,48.9,30.10,South,172,0.0,7.0,79,0.00,,,0.00,Wunderground v.1.15,2013-06-04 05:47:00,
2013-06-04 02:07:00,53.6,48.6,30.11,South,172,0.0,4.0,83,0.00,,,0.00,Wunderground v.1.15,2013-06-04 06:07:00,
2013-06-04 02:28:00,52.9,47.6,30.12,South,172,0.0,4.0,82,0.00,,,0.00,Wunderground v.1.15,2013-06-04 06:28:00,
2013-06-04 02:42:00,53.1,48.1,30.12,South,172,0.0,4.0,83,0.00,,,0.00,Wunderground v.1.15,2013-06-04 06:42:00,
2013-06-04 03:18:00,51.6,47.5,30.12,South,172,0.0,4.0,86,0.00,,,0.00,Wunderground v.1.15,2013-06-04 07:18:00,
2013-06-04 03:33:00,51.9,47.2,30.13,South,172,0.0,4.0,84,0.00,,,0.00,Wunderground v.1.15,2013-06-04 07:33:00,
2013-06-04 03:43:00,51.9,47.2,30.13,South,172,0.0,4.0,84,0.00,,,0.00,Wunderground v.1.15,2013-06-04 07:43:00,
2013-06-04 04:13:00,51.3,43.3,30.14,South,175,2.0,2.0,74,0.00,,,0.00,Wunderground v.1.15,2013-06-04 08:13:00,
2013-06-04 05:13:00,48.9,42.7,30.14,South,175,3.0,3.0,79,0.00,,,0.00,Wunderground v.1.15,2013-06-04 09:13:00,
2013-06-04 05:38:00,48.8,41.9,30.16,NW,317,4.0,6.0,77,0.00,,,0.00,Wunderground v.1.15,2013-06-04 09:38:00,
2013-06-04 05:53:00,48.6,40.3,30.18,NW,319,2.0,6.0,73,0.00,,,0.00,Wunderground v.1.15,2013-06-04 09:53:00,
2013-06-04 06:13:00,48.3,39.3,30.18,NW,323,3.0,3.0,71,0.00,,,0.00,Wunderground v.1.15,2013-06-04 10:13:00,
2013-06-04 06:23:00,48.0,39.0,30.19,NW,324,5.0,12.0,71,0.00,,,0.00,Wunderground v.1.15,2013-06-04 10:23:00,
2013-06-04 06:33:00,47.6,39.0,30.19,NW,325,4.0,4.0,72,0.00,,,0.00,Wunderground v.1.15,2013-06-04 10:33:00,
2013-06-04 06:53:00,47.4,38.5,30.20,NW,324,2.0,2.0,71,0.00,,,0.00,Wunderground v.1.15,2013-06-04 10:53:00,
2013-06-04 07:13:00,49.5,41.2,30.20,NW,325,0.0,10.0,73,0.00,,,0.00,Wunderground v.1.15,2013-06-04 11:13:00,
2013-06-04 07:53:00,51.6,38.6,30.21,NW,324,1.0,10.0,61,0.00,,,0.00,Wunderground v.1.15,2013-06-04 11:53:00,
2013-06-04 09:08:00,55.7,39.3,30.24,NNW,327,1.0,7.0,54,0.00,,,0.00,Wunderground v.1.15,2013-06-04 13:08:00,
2013-06-04 09:38:00,57.5,40.5,30.24,NNE,21,1.0,7.0,53,0.00,,,0.00,Wunderground v.1.15,2013-06-04 13:38:00,
2013-06-04 09:58:00,58.3,40.2,30.24,NNE,21,1.0,1.0,51,0.00,,,0.00,Wunderground v.1.15,2013-06-04 13:58:00,
2013-06-04 10:12:00,59.0,39.9,30.23,NNE,17,2.0,14.0,49,0.00,,,0.00,Wunderground v.1.15,2013-06-04 14:12:00,
2013-06-04 11:12:00,61.5,41.6,30.23,NNE,20,2.0,14.0,48,0.00,,,0.00,Wunderground v.1.15,2013-06-04 15:12:00,
2013-06-04 11:42:00,62.6,39.8,30.23,NNE,22,2.0,2.0,43,0.00,,,0.00,Wunderground v.1.15,2013-06-04 15:42:00,
2013-06-04 11:57:00,62.6,43.2,30.22,NNE,22,2.0,10.0,49,0.00,,,0.00,Wunderground v.1.15,2013-06-04 15:57:00,
2013-06-04 12:57:00,65.3,41.0,30.21,NNE,22,1.0,12.0,41,0.00,,,0.00,Wunderground v.1.15,2013-06-04 16:57:00,
2013-06-04 13:07:00,66.0,42.9,30.20,East,86,2.0,12.0,43,0.00,,,0.00,Wunderground v.1.15,2013-06-04 17:07:00,
2013-06-04 13:37:00,66.3,43.7,30.19,East,97,4.0,12.0,44,0.00,,,0.00,Wunderground v.1.15,2013-06-04 17:37:00,
2013-06-04 13:52:00,66.1,41.7,30.19,East,98,2.0,2.0,41,0.00,,,0.00,Wunderground v.1.15,2013-06-04 17:52:00,
2013-06-04 14:12:00,68.1,45.4,30.19,East,98,2.0,11.0,44,0.00,,,0.00,Wunderground v.1.15,2013-06-04 18:12:00,
2013-06-04 14:22:00,68.1,45.4,30.19,East,98,2.0,11.0,44,0.00,,,0.00,Wunderground v.1.15,2013-06-04 18:22:00,
2013-06-04 14:57:00,69.6,41.5,30.18,East,98,1.0,1.0,36,0.00,,,0.00,Wunderground v.1.15,2013-06-04 18:57:00,
2013-06-04 15:12:00,70.3,42.8,30.18,East,97,1.0,1.0,37,0.00,,,0.00,Wunderground v.1.15,2013-06-04 19:12:00,
2013-06-04 15:27:00,71.1,43.5,30.18,East,97,1.0,10.0,37,0.00,,,0.00,Wunderground v.1.15,2013-06-04 19:27:00,
2013-06-04 15:57:00,71.3,45.7,30.17,East,101,3.0,10.0,40,0.00,,,0.00,Wunderground v.1.15,2013-06-04 19:57:00,
2013-06-04 16:07:00,70.8,43.9,30.16,East,101,4.0,4.0,38,0.00,,,0.00,Wunderground v.1.15,2013-06-04 20:07:00,
2013-06-04 16:27:00,71.1,46.2,30.17,ESE,102,2.0,2.0,41,0.00,,,0.00,Wunderground v.1.15,2013-06-04 20:27:00,
2013-06-04 16:42:00,71.1,46.2,30.17,ESE,102,1.0,1.0,41,0.00,,,0.00,Wunderground v.1.15,2013-06-04 20:42:00,
2013-06-04 17:12:00,72.0,46.3,30.16,ESE,102,2.0,2.0,40,0.00,,,0.00,Wunderground v.1.15,2013-06-04 21:12:00,
2013-06-04 17:22:00,72.8,45.7,30.16,ESE,102,2.0,10.0,38,0.00,,,0.00,Wunderground v.1.15,2013-06-04 21:22:00,
2013-06-04 17:37:00,72.1,45.8,30.16,ESE,102,3.0,10.0,39,0.00,,,0.00,Wunderground v.1.15,2013-06-04 21:37:00,
2013-06-04 17:57:00,70.9,45.4,30.16,ESE,102,2.0,2.0,40,0.00,,,0.00,Wunderground v.1.15,2013-06-04 21:57:00,
2013-06-04 18:07:00,70.3,45.5,30.16,ESE,102,2.0,2.0,41,0.00,,,0.00,Wunderground v.1.15,2013-06-04 22:07:00,
2013-06-04 18:27:00,70.3,47.3,30.17,ESE,102,0.0,9.0,44,0.00,,,0.00,Wunderground v.1.15,2013-06-04 22:27:00,
2013-06-04 18:42:00,69.9,46.4,30.16,ESE,102,1.0,1.0,43,0.00,,,0.00,Wunderground v.1.15,2013-06-04 22:42:00,
2013-06-04 19:12:00,68.6,45.2,30.17,ESE,102,0.0,7.0,43,0.00,,,0.00,Wunderground v.1.15,2013-06-04 23:12:00,
2013-06-04 19:22:00,68.8,46.6,30.17,ESE,102,0.0,7.0,45,0.00,,,0.00,Wunderground v.1.15,2013-06-04 23:22:00,
2013-06-04 19:32:00,68.9,45.5,30.18,ESE,102,0.0,7.0,43,0.00,,,0.00,Wunderground v.1.15,2013-06-04 23:32:00,
2013-06-04 19:47:00,67.8,45.1,30.17,ESE,102,0.0,7.0,44,0.00,,,0.00,Wunderground v.1.15,2013-06-04 23:47:00,
2013-06-04 20:07:00,66.1,45.3,30.18,ESE,102,0.0,1.0,47,0.00,,,0.00,Wunderground v.1.15,2013-06-05 00:07:00,
2013-06-04 20:17:00,66.0,45.2,30.19,ESE,102,0.0,1.0,47,0.00,,,0.00,Wunderground v.1.15,2013-06-05 00:17:00,
2013-06-04 20:32:00,65.3,44.5,30.19,ESE,102,0.0,1.0,47,0.00,,,0.00,Wunderground v.1.15,2013-06-05 00:32:00,
2013-06-04 21:22:00,64.0,47.0,30.20,ESE,102,2.0,2.0,54,0.00,,,0.00,Wunderground v.1.15,2013-06-05 01:22:00,
2013-06-04 21:47:00,63.1,46.2,30.22,ESE,102,1.0,1.0,54,0.00,,,0.00,Wunderground v.1.15,2013-06-05 01:47:00,
2013-06-04 22:07:00,62.7,45.8,30.22,ESE,102,1.0,1.0,54,0.00,,,0.00,Wunderground v.1.15,2013-06-05 02:07:00,
2013-06-04 22:17:00,62.7,45.3,30.22,ESE,102,0.0,6.0,53,0.00,,,0.00,Wunderground v.1.15,2013-06-05 02:17:00,
2013-06-04 22:37:00,62.1,44.8,30.22,ESE,102,0.0,6.0,53,0.00,,,0.00,Wunderground v.1.15,2013-06-05 02:37:00,
2013-06-04 22:47:00,62.0,44.7,30.22,ESE,102,1.0,1.0,53,0.00,,,0.00,Wunderground v.1.15,2013-06-05 02:47:00,
2013-06-04 23:12:00,62.0,44.7,30.22,ESE,102,1.0,5.0,53,0.00,,,0.00,Wunderground v.1.15,2013-06-05 03:12:00,
2013-06-04 23:32:00,61.5,44.7,30.22,ESE,102,1.0,1.0,54,0.00,,,0.00,Wunderground v.1.15,2013-06-05 03:32:00,
2013-06-04 23:37:00,61.3,44.5,30.22,ESE,102,0.0,5.0,54,0.00,,,0.00,Wunderground v.1.15,2013-06-05 03:37:00,